createdAt,value
2022-08-07T00:00:53.391Z,100.00
2022-08-07T00:03:25.734Z,100.00
2022-08-07T00:05:54.217Z,100.00
2022-08-07T00:08:23.491Z,100.00
2022-08-07T00:10:57.555Z,100.00
2022-08-07T00:13:27.201Z,100.00
2022-08-07T00:15:55.987Z,100.00
2022-08-07T00:18:29.206Z,100.00
2022-08-07T00:21:01.811Z,100.00
2022-08-07T00:23:32.516Z,100.00
2022-08-07T00:26:10.856Z,100.00
2022-08-07T00:28:56.626Z,100.00
2022-08-07T00:31:37.466Z,100.00
2022-08-07T00:34:10.555Z,100.00
2022-08-07T00:36:42.968Z,100.00
2022-08-07T00:39:16.680Z,100.00
2022-08-07T00:42:01.936Z,100.00
2022-08-07T00:44:33.611Z,100.00
2022-08-07T00:47:02.279Z,100.00
2022-08-07T00:50:21.168Z,100.00
2022-08-07T00:52:20.039Z,100.00
2022-08-07T00:54:53.431Z,100.00
2022-08-07T00:57:25.747Z,100.00
2022-08-07T00:59:54.782Z,100.00
2022-08-07T01:02:27.934Z,100.00
2022-08-07T01:04:58.622Z,100.00
2022-08-07T01:07:29.328Z,100.00
2022-08-07T01:10:05.958Z,100.00
2022-08-07T01:12:53.250Z,100.00
2022-08-07T01:15:35.918Z,100.00
2022-08-07T01:18:17.572Z,100.00
2022-08-07T01:20:59.322Z,100.00
2022-08-07T01:23:36.819Z,100.00
2022-08-07T01:26:11.858Z,100.00
2022-08-07T01:28:41.339Z,100.00
2022-08-07T01:31:17.863Z,100.00
2022-08-07T01:33:55.858Z,100.00
2022-08-07T01:36:33.448Z,100.00
2022-08-07T01:39:09.477Z,100.00
2022-08-07T01:41:40.833Z,100.00
2022-08-07T01:44:27.643Z,100.00
2022-08-07T01:46:56.046Z,100.00
2022-08-07T01:49:24.600Z,100.00
2022-08-07T01:52:03.311Z,100.00
2022-08-07T01:54:37.580Z,100.00
2022-08-07T01:57:08.680Z,100.00
2022-08-07T01:59:53.530Z,100.00
2022-08-07T02:03:11.401Z,100.00
2022-08-07T02:05:48.049Z,100.00
2022-08-07T02:08:10.882Z,100.00
2022-08-07T02:10:55.290Z,100.00
2022-08-07T02:13:27.640Z,100.00
2022-08-07T02:16:14.520Z,100.00
2022-08-07T02:18:46.954Z,100.00
2022-08-07T02:21:16.662Z,100.00
2022-08-07T02:23:46.130Z,100.00
2022-08-07T02:26:32.951Z,100.00
2022-08-07T02:29:03.949Z,100.00
2022-08-07T02:31:32.925Z,100.00
2022-08-07T02:34:03.707Z,100.00
2022-08-07T02:36:41.311Z,100.00
2022-08-07T02:39:17.055Z,100.00
2022-08-07T02:42:00.065Z,100.00
2022-08-07T02:44:34.600Z,100.00
2022-08-07T02:47:05.079Z,100.00
2022-08-07T02:49:57.529Z,100.00
2022-08-07T02:52:32.304Z,100.00
2022-08-07T02:55:04.508Z,100.00
2022-08-07T02:57:46.732Z,100.00
2022-08-07T03:00:16.709Z,100.00
2022-08-07T03:02:54.382Z,100.00
2022-08-07T03:05:24.626Z,100.00
2022-08-07T03:08:07.321Z,100.00
2022-08-07T03:10:40.972Z,100.00
2022-08-07T03:13:19.358Z,100.00
2022-08-07T03:15:56.163Z,100.00
2022-08-07T03:18:34.925Z,100.00
2022-08-07T03:21:08.588Z,100.00
2022-08-07T03:24:19.835Z,100.00
2022-08-07T03:26:31.881Z,100.00
2022-08-07T03:29:02.659Z,100.00
2022-08-07T03:31:42.648Z,100.00
2022-08-07T03:34:18.712Z,100.00
2022-08-07T03:36:52.815Z,100.00
2022-08-07T03:39:46.437Z,100.00
2022-08-07T03:42:11.072Z,100.00
2022-08-07T03:44:42.494Z,100.00
2022-08-07T03:47:15.992Z,100.00
2022-08-07T03:49:47.643Z,100.00
2022-08-07T03:52:26.643Z,100.00
2022-08-07T03:54:57.379Z,100.00
2022-08-07T03:58:32.612Z,100.00
2022-08-07T04:00:30.169Z,100.00
2022-08-07T04:03:04.385Z,100.00
2022-08-07T04:05:40.734Z,100.00
2022-08-07T04:08:12.363Z,100.00
2022-08-07T04:10:42.408Z,100.00
2022-08-07T04:13:15.337Z,100.00
2022-08-07T04:15:45.914Z,100.00
2022-08-07T04:18:58.033Z,100.00
2022-08-07T04:21:07.243Z,100.00
2022-08-07T04:23:43.984Z,100.00
2022-08-07T04:26:25.092Z,100.00
2022-08-07T04:28:57.012Z,100.00
2022-08-07T04:31:39.213Z,100.00
2022-08-07T04:34:23.963Z,100.00
2022-08-07T04:36:55.697Z,100.00
2022-08-07T04:39:26.260Z,100.00
2022-08-07T04:41:54.898Z,100.00
2022-08-07T04:44:23.426Z,100.00
2022-08-07T04:47:07.885Z,100.00
2022-08-07T04:49:47.481Z,100.00
2022-08-07T04:52:33.406Z,100.00
2022-08-07T04:55:14.810Z,100.00
2022-08-07T04:58:15.001Z,100.00
2022-08-07T05:00:42.439Z,100.00
2022-08-07T05:04:00.475Z,100.00
2022-08-07T05:06:19.781Z,100.00
2022-08-07T05:09:01.314Z,100.00
2022-08-07T05:11:57.103Z,100.00
2022-08-07T05:14:52.167Z,100.00
2022-08-07T05:17:51.547Z,100.00
2022-08-07T05:20:11.948Z,100.00
2022-08-07T05:22:42.740Z,100.00
2022-08-07T05:25:25.811Z,100.00
2022-08-07T05:28:02.574Z,100.00
2022-08-07T05:30:47.224Z,100.00
2022-08-07T05:33:17.985Z,100.00
2022-08-07T05:35:51.003Z,100.00
2022-08-07T05:38:59.731Z,100.00
2022-08-07T05:41:14.210Z,100.00
2022-08-07T05:44:07.514Z,100.00
2022-08-07T05:46:36.025Z,100.00
2022-08-07T05:49:12.059Z,100.00
2022-08-07T05:51:43.155Z,100.00
2022-08-07T05:54:31.080Z,100.00
2022-08-07T05:57:00.481Z,100.00
2022-08-07T05:59:28.793Z,100.00
2022-08-07T06:02:08.380Z,100.00
2022-08-07T06:04:38.719Z,100.00
2022-08-07T06:07:08.560Z,100.00
2022-08-07T06:10:05.222Z,100.00
2022-08-07T06:12:35.454Z,100.00
2022-08-07T06:15:05.199Z,100.00
2022-08-07T06:17:38.133Z,100.00
2022-08-07T06:20:12.735Z,100.00
2022-08-07T06:23:02.362Z,100.00
2022-08-07T06:25:54.749Z,100.00
2022-08-07T06:28:28.109Z,100.00
2022-08-07T06:30:58.109Z,100.00
2022-08-07T06:33:26.867Z,100.00
2022-08-07T06:36:13.004Z,100.00
2022-08-07T06:38:51.656Z,100.00
2022-08-07T06:42:02.605Z,100.00
2022-08-07T06:44:24.277Z,100.00
2022-08-07T06:46:53.232Z,100.00
2022-08-07T06:49:22.214Z,100.00
2022-08-07T06:51:50.971Z,100.00
2022-08-07T06:55:34.340Z,100.00
2022-08-07T06:57:10.940Z,100.00
2022-08-07T07:00:11.415Z,100.00
2022-08-07T07:02:54.569Z,100.00
2022-08-07T07:06:02.900Z,100.00
2022-08-07T07:08:18.499Z,100.00
2022-08-07T07:10:57.308Z,100.00
2022-08-07T07:13:55.766Z,100.00
2022-08-07T07:16:23.585Z,100.00
2022-08-07T07:19:00.478Z,100.00
2022-08-07T07:22:04.958Z,100.00
2022-08-07T07:24:30.842Z,100.00
2022-08-07T07:27:04.697Z,100.00
2022-08-07T07:29:56.280Z,100.00
2022-08-07T07:32:26.931Z,100.00
2022-08-07T07:34:57.251Z,100.00
2022-08-07T07:37:47.256Z,100.00
2022-08-07T07:40:16.739Z,100.00
2022-08-07T07:42:51.209Z,100.00
2022-08-07T07:46:53.319Z,100.00
2022-08-07T07:48:35.072Z,100.00
2022-08-07T07:51:07.962Z,100.00
2022-08-07T07:53:52.564Z,100.00
2022-08-07T07:56:30.382Z,100.00
2022-08-07T07:59:02.146Z,100.00
2022-08-07T08:02:03.109Z,100.00
2022-08-07T08:04:25.515Z,100.00
2022-08-07T08:06:54.644Z,100.00
2022-08-07T08:09:29.580Z,100.00
2022-08-07T08:12:03.060Z,100.00
2022-08-07T08:14:36.399Z,100.00
2022-08-07T08:17:32.357Z,90.57
2022-08-07T08:20:17.399Z,93.55
2022-08-07T08:23:04.866Z,86.78
2022-08-07T08:25:56.215Z,91.09
2022-08-07T08:28:38.071Z,88.55
2022-08-07T08:31:14.776Z,88.54
2022-08-07T08:33:49.109Z,91.74
2022-08-07T08:36:25.458Z,84.81
2022-08-07T08:39:00.071Z,84.59
2022-08-07T08:41:57.619Z,86.55
2022-08-07T08:44:29.642Z,82.65
2022-08-07T08:47:07.678Z,85.86
2022-08-07T08:49:57.194Z,87.02
2022-08-07T08:52:36.112Z,82.34
2022-08-07T08:55:21.074Z,81.69
2022-08-07T08:58:13.053Z,85.28
2022-08-07T09:00:48.655Z,79.55
2022-08-07T09:03:47.653Z,73.60
2022-08-07T09:06:23.035Z,72.41
2022-08-07T09:08:58.433Z,68.22
2022-08-07T09:11:43.413Z,62.47
2022-08-07T09:14:30.855Z,61.85
2022-08-07T09:17:05.351Z,63.50
2022-08-07T09:19:53.238Z,61.52
2022-08-07T09:24:32.441Z,63.19
2022-08-07T09:25:26.710Z,65.47
2022-08-07T09:28:03.077Z,68.22
2022-08-07T09:30:46.272Z,65.21
2022-08-07T09:33:53.143Z,68.13
2022-08-07T09:36:29.291Z,64.75
2022-08-07T09:39:52.454Z,66.32
2022-08-07T09:42:07.816Z,62.09
2022-08-07T09:47:27.348Z,61.88
2022-08-07T09:48:00.085Z,64.38
2022-08-07T09:50:37.509Z,58.43
2022-08-07T09:53:12.570Z,58.69
2022-08-07T09:56:03.842Z,58.54
2022-08-07T09:58:58.824Z,56.32
2022-08-07T10:01:50.418Z,53.84
2022-08-07T10:04:33.315Z,52.88
2022-08-07T10:07:40.005Z,55.02
2022-08-07T10:10:23.443Z,54.98
2022-08-07T10:13:55.040Z,53.07
2022-08-07T10:16:13.079Z,53.53
2022-08-07T10:19:11.286Z,51.60
2022-08-07T10:22:15.682Z,49.38
2022-08-07T10:24:51.737Z,47.96
2022-08-07T10:27:46.909Z,48.05
2022-08-07T10:30:18.639Z,47.58
2022-08-07T10:33:01.392Z,47.08
2022-08-07T10:35:53.333Z,47.28
2022-08-07T10:38:36.158Z,47.63
2022-08-07T10:41:47.437Z,46.85
2022-08-07T10:44:28.790Z,46.63
2022-08-07T10:47:18.721Z,47.63
2022-08-07T10:50:01.616Z,46.71
2022-08-07T10:52:34.871Z,46.03
2022-08-07T10:55:26.760Z,46.85
2022-08-07T10:58:05.925Z,47.73
2022-08-07T11:00:50.162Z,45.51
2022-08-07T11:03:28.041Z,45.80
2022-08-07T11:06:18.284Z,45.97
2022-08-07T11:08:51.738Z,45.85
2022-08-07T11:11:25.760Z,46.07
2022-08-07T11:14:45.196Z,45.93
2022-08-07T11:16:55.677Z,45.64
2022-08-07T11:19:32.424Z,45.48
2022-08-07T11:22:18.780Z,44.91
2022-08-07T11:25:06.504Z,44.06
2022-08-07T11:28:02.888Z,43.71
2022-08-07T11:30:41.594Z,43.98
2022-08-07T11:33:20.155Z,44.09
2022-08-07T11:36:20.389Z,44.25
2022-08-07T11:39:07.274Z,40.45
2022-08-07T11:42:01.571Z,42.38
2022-08-07T11:44:37.628Z,41.21
2022-08-07T11:47:13.618Z,42.48
2022-08-07T11:50:30.569Z,42.17
2022-08-07T11:53:01.927Z,44.60
2022-08-07T11:56:25.235Z,41.81
2022-08-07T11:58:45.835Z,42.63
2022-08-07T12:01:58.809Z,41.52
2022-08-07T12:04:35.636Z,44.17
2022-08-07T12:07:20.311Z,43.40
2022-08-07T12:09:58.481Z,42.71
2022-08-07T12:12:37.965Z,41.58
2022-08-07T12:15:17.325Z,42.95
2022-08-07T12:18:03.237Z,44.52
2022-08-07T12:20:39.460Z,42.77
2022-08-07T12:24:06.248Z,43.48
2022-08-07T12:26:23.127Z,41.81
2022-08-07T12:28:54.076Z,42.08
2022-08-07T12:31:52.549Z,42.27
2022-08-07T12:34:20.958Z,43.18
2022-08-07T12:36:52.313Z,42.77
2022-08-07T12:39:42.420Z,41.41
2022-08-07T12:42:14.432Z,42.71
2022-08-07T12:44:46.885Z,42.60
2022-08-07T12:47:30.996Z,42.01
2022-08-07T12:50:38.527Z,42.58
2022-08-07T12:52:58.713Z,41.76
2022-08-07T12:55:41.458Z,41.32
2022-08-07T12:58:21.585Z,42.03
2022-08-07T13:01:04.391Z,42.39
2022-08-07T13:03:56.013Z,42.56
2022-08-07T13:06:54.229Z,42.93
2022-08-07T13:10:38.149Z,43.12
2022-08-07T13:12:51.655Z,42.45
2022-08-07T13:15:31.656Z,42.09
2022-08-07T13:18:11.341Z,42.06
2022-08-07T13:21:00.764Z,42.24
2022-08-07T13:24:00.856Z,40.92
2022-08-07T13:26:32.794Z,41.97
2022-08-07T13:29:12.902Z,42.04
2022-08-07T13:31:46.168Z,40.88
2022-08-07T13:34:35.995Z,41.30
2022-08-07T13:37:19.634Z,40.87
2022-08-07T13:40:35.498Z,40.79
2022-08-07T13:42:45.199Z,41.05
2022-08-07T13:46:06.651Z,39.69
2022-08-07T13:48:07.745Z,41.06
2022-08-07T13:51:00.186Z,41.51
2022-08-07T13:53:55.310Z,40.59
2022-08-07T13:56:40.730Z,40.16
2022-08-07T13:59:13.747Z,39.32
2022-08-07T14:01:59.179Z,37.99
2022-08-07T14:04:36.075Z,39.77
2022-08-07T14:07:10.202Z,39.95
2022-08-07T14:10:01.402Z,39.46
2022-08-07T14:12:36.838Z,39.75
2022-08-07T14:15:23.699Z,40.88
2022-08-07T14:18:15.963Z,39.63
2022-08-07T14:20:49.201Z,40.03
2022-08-07T14:23:58.771Z,39.80
2022-08-07T14:26:23.641Z,39.27
2022-08-07T14:29:04.387Z,39.02
2022-08-07T14:31:43.028Z,39.46
2022-08-07T14:34:29.632Z,38.00
2022-08-07T14:36:59.253Z,38.72
2022-08-07T14:40:17.170Z,40.06
2022-08-07T14:42:24.666Z,39.58
2022-08-07T14:44:59.885Z,39.64
2022-08-07T14:47:33.782Z,39.96
2022-08-07T14:50:06.951Z,39.96
2022-08-07T14:52:40.264Z,39.11
2022-08-07T14:55:11.243Z,40.47
2022-08-07T14:57:55.260Z,40.05
2022-08-07T15:00:38.519Z,40.56
2022-08-07T15:03:18.850Z,41.27
2022-08-07T15:05:54.810Z,42.41
2022-08-07T15:08:35.189Z,42.77
2022-08-07T15:11:17.060Z,43.76
2022-08-07T15:14:10.124Z,43.28
2022-08-07T15:16:55.228Z,42.69
2022-08-07T15:20:23.643Z,43.85
2022-08-07T15:25:19.374Z,42.64
2022-08-07T15:28:32.503Z,43.59
2022-08-07T15:30:59.423Z,44.62
2022-08-07T15:36:57.446Z,43.68
2022-08-07T15:39:10.455Z,44.01
2022-08-07T15:42:44.295Z,43.77
2022-08-07T15:44:30.435Z,43.07
2022-08-07T15:47:03.437Z,43.34
2022-08-07T15:50:04.211Z,43.23
2022-08-07T15:52:29.756Z,41.76
2022-08-07T15:55:03.369Z,42.63
2022-08-07T15:57:47.785Z,42.61
2022-08-07T16:00:31.864Z,42.47
2022-08-07T16:03:08.456Z,43.45
2022-08-07T16:05:51.845Z,43.07
2022-08-07T16:08:31.590Z,42.38
2022-08-07T16:11:27.111Z,43.26
2022-08-07T16:14:06.684Z,43.39
2022-08-07T16:16:57.168Z,45.13
2022-08-07T16:20:04.265Z,44.49
2022-08-07T16:22:54.835Z,46.83
2022-08-07T16:25:55.232Z,45.78
2022-08-07T16:30:05.456Z,46.02
2022-08-07T16:31:51.868Z,45.53
2022-08-07T16:34:25.660Z,45.74
2022-08-07T16:38:04.177Z,45.14
2022-08-07T16:40:34.994Z,46.11
2022-08-07T16:43:11.755Z,48.90
2022-08-07T16:46:40.553Z,48.46
2022-08-07T16:50:28.615Z,49.43
2022-08-07T16:52:51.494Z,49.79
2022-08-07T16:55:13.212Z,51.16
2022-08-07T16:58:01.844Z,51.18
2022-08-07T17:00:41.209Z,50.88
2022-08-07T17:03:57.755Z,52.47
2022-08-07T17:06:28.805Z,53.21
2022-08-07T17:09:09.106Z,52.39
2022-08-07T17:12:04.017Z,54.63
2022-08-07T17:14:42.732Z,55.89
2022-08-07T17:17:46.317Z,55.92
2022-08-07T17:20:29.880Z,56.66
2022-08-07T17:23:02.735Z,58.27
2022-08-07T17:25:52.013Z,57.07
2022-08-07T17:28:31.110Z,60.52
2022-08-07T17:31:15.777Z,61.60
2022-08-07T17:34:19.831Z,60.27
2022-08-07T17:36:49.224Z,61.54
2022-08-07T17:39:53.157Z,62.10
2022-08-07T17:42:34.742Z,62.49
2022-08-07T17:45:14.870Z,63.42
2022-08-07T17:47:54.121Z,63.27
2022-08-07T17:50:30.528Z,65.26
2022-08-07T17:53:07.881Z,63.50
2022-08-07T17:56:06.689Z,62.74
2022-08-07T17:58:46.516Z,62.64
2022-08-07T18:01:22.072Z,58.24
2022-08-07T18:04:16.054Z,54.33
2022-08-07T18:07:19.278Z,53.54
2022-08-07T18:10:05.202Z,54.45
2022-08-07T18:12:51.890Z,54.71
2022-08-07T18:15:24.023Z,52.57
2022-08-07T18:18:45.311Z,54.28
2022-08-07T18:21:07.067Z,56.95
2022-08-07T18:23:57.213Z,62.78
2022-08-07T18:26:54.234Z,61.46
2022-08-07T18:30:06.228Z,63.95
2022-08-07T18:32:25.564Z,66.68
2022-08-07T18:35:12.784Z,68.10
2022-08-07T18:38:55.245Z,73.22
2022-08-07T18:41:08.105Z,75.09
2022-08-07T18:43:49.886Z,76.99
2022-08-07T18:46:26.746Z,80.10
2022-08-07T18:50:32.778Z,77.68
2022-08-07T18:52:25.399Z,78.51
2022-08-07T18:54:50.995Z,79.77
2022-08-07T18:57:40.342Z,81.03
2022-08-07T19:00:33.547Z,84.84
2022-08-07T19:03:11.891Z,83.60
2022-08-07T19:06:04.103Z,84.77
2022-08-07T19:08:42.886Z,85.36
2022-08-07T19:11:36.136Z,84.92
2022-08-07T19:14:17.256Z,89.21
2022-08-07T19:17:07.005Z,91.57
2022-08-07T19:19:46.095Z,100.00
2022-08-07T19:22:30.938Z,100.00
2022-08-07T19:25:05.612Z,100.00
2022-08-07T19:28:56.894Z,100.00
2022-08-07T19:31:04.380Z,100.00
2022-08-07T19:33:17.310Z,100.00
2022-08-07T19:35:54.654Z,100.00
2022-08-07T19:38:23.325Z,100.00
2022-08-07T19:40:59.092Z,100.00
2022-08-07T19:43:43.634Z,100.00
2022-08-07T19:46:26.456Z,100.00
2022-08-07T19:49:04.244Z,100.00
2022-08-07T19:51:51.853Z,100.00
2022-08-07T19:54:34.445Z,100.00
2022-08-07T19:58:00.479Z,100.00
2022-08-07T20:00:10.030Z,100.00
2022-08-07T20:02:51.642Z,100.00
2022-08-07T20:05:25.263Z,100.00
2022-08-07T20:08:00.762Z,100.00
2022-08-07T20:10:36.282Z,100.00
2022-08-07T20:13:26.793Z,100.00
2022-08-07T20:15:57.935Z,100.00
2022-08-07T20:18:32.697Z,100.00
2022-08-07T20:21:21.363Z,100.00
2022-08-07T20:23:54.914Z,100.00
2022-08-07T20:26:29.623Z,100.00
2022-08-07T20:29:46.659Z,100.00
2022-08-07T20:32:00.692Z,100.00
2022-08-07T20:34:49.384Z,100.00
2022-08-07T20:37:24.742Z,100.00
2022-08-07T20:40:03.884Z,100.00
2022-08-07T20:42:33.709Z,100.00
2022-08-07T20:45:32.817Z,100.00
2022-08-07T20:47:56.082Z,100.00
2022-08-07T20:50:27.987Z,100.00
2022-08-07T20:52:58.051Z,100.00
2022-08-07T20:55:26.595Z,100.00
2022-08-07T20:58:03.330Z,100.00
2022-08-07T21:00:34.035Z,100.00
2022-08-07T21:03:03.110Z,100.00
2022-08-07T21:05:52.457Z,100.00
2022-08-07T21:08:37.232Z,100.00
2022-08-07T21:11:12.215Z,100.00
2022-08-07T21:14:16.304Z,100.00
2022-08-07T21:16:46.962Z,100.00
2022-08-07T21:19:32.528Z,100.00
2022-08-07T21:22:16.294Z,100.00
2022-08-07T21:24:56.873Z,100.00
2022-08-07T21:27:40.019Z,100.00
2022-08-07T21:30:18.853Z,100.00
2022-08-07T21:32:54.809Z,100.00
2022-08-07T21:35:34.658Z,100.00
2022-08-07T21:38:21.536Z,100.00
2022-08-07T21:41:01.429Z,100.00
2022-08-07T21:43:55.666Z,100.00
2022-08-07T21:46:31.688Z,100.00
2022-08-07T21:49:14.459Z,100.00
2022-08-07T21:51:54.767Z,100.00
2022-08-07T21:54:30.960Z,100.00
2022-08-07T21:57:16.163Z,100.00
2022-08-07T22:00:08.718Z,100.00
2022-08-07T22:02:42.887Z,100.00
2022-08-07T22:05:44.619Z,100.00
2022-08-07T22:08:02.937Z,100.00
2022-08-07T22:10:35.401Z,100.00
2022-08-07T22:13:09.212Z,100.00
2022-08-07T22:16:44.520Z,100.00
2022-08-07T22:18:36.986Z,100.00
2022-08-07T22:21:12.530Z,100.00
2022-08-07T22:23:45.262Z,100.00
2022-08-07T22:26:18.432Z,100.00
2022-08-07T22:28:53.120Z,100.00
2022-08-07T22:31:45.724Z,100.00
2022-08-07T22:34:29.172Z,100.00
2022-08-07T22:37:12.569Z,100.00
2022-08-07T22:39:53.581Z,100.00
2022-08-07T22:42:26.006Z,100.00
2022-08-07T22:44:59.706Z,100.00
2022-08-07T22:47:56.897Z,100.00
2022-08-07T22:51:16.564Z,100.00
2022-08-07T22:54:07.001Z,100.00
2022-08-07T22:56:48.038Z,100.00
2022-08-07T22:59:42.470Z,100.00
2022-08-07T23:02:27.306Z,100.00
2022-08-07T23:06:07.588Z,100.00
2022-08-07T23:08:53.055Z,100.00
2022-08-07T23:11:35.285Z,100.00
2022-08-07T23:14:24.177Z,100.00
2022-08-07T23:17:15.923Z,100.00
2022-08-07T23:20:40.487Z,100.00
2022-08-07T23:24:07.068Z,100.00
2022-08-07T23:26:23.528Z,100.00
2022-08-07T23:29:03.823Z,100.00
2022-08-07T23:34:18.929Z,100.00
2022-08-07T23:34:52.767Z,100.00
2022-08-07T23:38:00.904Z,100.00
2022-08-07T23:40:37.404Z,100.00
2022-08-07T23:43:25.533Z,100.00
2022-08-07T23:46:20.093Z,100.00
2022-08-07T23:49:17.111Z,100.00
2022-08-07T23:53:06.641Z,100.00
2022-08-07T23:54:46.103Z,100.00
2022-08-07T23:57:22.378Z,100.00
